logo
Search for airport 
image banner adimage banner adimage banner ad
image banner ad

YWSG - Watts Bridge

Located in Toogoolawah, Australia

ICAO - YWSG, IATA -

Data provided by Airmate  

General information

Coordinates: S27°5'40" E152°27'35"
Elevation is 300 feet MSL.
Magnetic variation is 11° East
View others Airports in Queensland

Operational data

Special qualification required
Current time UTC:
Current local time:
Weather at : YAMB - Amberley ( 66 km )
METAR: YAMB 180130Z 33008KT CAVOK 19/08 Q1015
TAF: TAF YAMB 172327Z 1800/1900 28008KT CAVOK FM181000 31005KT CAVOK
View NOTAMs / SUP AIP / TFR affecting this airport [VIEW]
Communications frequencies: [VIEW]

Runways:

RWY identifierQFULength (ft)Width (ft)SurfaceLDA (ft)
03265782G
21265782G
12L275698UNK
30R275698UNK
12R288798UNK
30L288798UNK
30309°296994GRAS
12129°296994GRAS
18192°385GRAS
0012°385GRAS

Airport contact information

Address: Toogoolawah Australia

Other aviation service providers

Autres associations d'aviation non-lucratives

Australian Sport Rotorcraft Association

Australian Sport Rotorcraft Association

Non aviation service providers

Autres associations d'aviation non-lucratives

Australian Sport Rotorcraft Association

Australian Sport Rotorcraft Association

Satellite view of YWSG